CJU weather

Jeju International Airport
Jeju City, Jejudo, South Korea

Public forecast

Using degrees Celsius for public forecast. Weather courtesy of forecast.io.

Current aviation weather report (METAR) for Jeju International Airport

Retrieved 2020/01/21 22:00 UTC (34 minutes ago):

RKPC 212200Z 16005KT 120V200 9999 -RA BKN030 OVC080 09/06 Q1024 NOSIG

Aviation forecast (TAF) for Jeju International Airport

Retrieved 2020/01/21 18:00 UTC (5 hours ago):

TAF RKPC 211700Z 2118/2224 17005KT 9999 FEW010 BKN030 OVC100 TN08/2120Z TX13/2206Z TN12/2221Z BECMG 2119/2120 6000 -RA BECMG 2202/2203 09008KT BECMG 2212/2213 24007KT 4200 BECMG 2220/2221 27008KT 7000 NSW BECMG 2223/2224 35008KT